Latest Weather Observations for Kapooka (Defence)

IDN60801

Issued at 10:12 am EST Tuesday 26 May 2020 (issued every 10 minutes, with the page automatically refreshed every 10 minutes)

About weather observations | Map of weather stations | Latest weather observations for NSW | Other Formats
Station Details ID: 074272 Name: KAPOOKA (DEFENCE) Lat: -35.13 Lon: 147.25 Height: 187.0 m
Data from the previous 72 hours. | See also: Recent months at Kapooka (Defence)
Date/Time
EST
Temp
°C
App
Temp
°C
Dew
Point
°C
Rel
Hum
%
Delta-T
°C
Wind Press
QNH
hPa
Press
MSL
hPa
Rain since
9am
mm
Dir  Spd
km/h
Gust
km/h
Spd
kts
Gust
kts
26/10:00am 11.3 10.4 6.2 71 2.4 CALM 0 0 0 0 - - 0.0
26/09:30am 10.0 8.9 5.2 72 2.2 CALM 0 0 0 0 - - 0.0
26/09:00am 8.0 6.2 5.5 84 1.1 SSW 4 6 2 3 - - 0.0
26/08:30am 6.4 4.1 4.9 90 0.7 S 6 6 3 3 - - 0.0
26/08:00am 3.4 1.1 3.0 97 0.2 SSW 4 6 2 3 - - 0.0
26/07:30am 1.5 -0.7 0.9 96 0.2 SSW 2 4 1 2 - - 0.0
26/07:00am 2.3 -0.1 1.9 97 0.2 SSE 4 6 2 3 - - 0.0
26/06:30am 1.7 -0.2 0.8 94 0.3 CALM 0 0 0 0 - - 0.0
26/06:00am 3.3 1.7 2.4 94 0.4 CALM 0 0 0 0 - - 0.0
26/05:30am 3.3 1.7 2.6 95 0.3 CALM 0 0 0 0 - - 0.0
26/05:00am 3.3 1.4 2.6 95 0.3 S 2 4 1 2 - - 0.0
26/04:30am 3.4 1.8 2.4 93 0.4 CALM 0 0 0 0 - - 0.0
26/04:00am 4.5 3.1 3.3 92 0.5 CALM 0 0 0 0 - - 0.0
26/03:30am 5.0 2.7 3.0 87 0.8 SSW 4 6 2 3 - - 0.0
26/03:00am 4.0 1.8 3.4 96 0.2 W 4 9 2 5 - - 0.0
26/02:30am 3.3 1.7 2.7 96 0.2 CALM 0 0 0 0 - - 0.0
26/02:00am 3.5 2.0 2.9 96 0.2 CALM 0 4 0 2 - - 0.0
26/01:30am 3.6 1.7 3.0 96 0.2 SSW 2 7 1 4 - - 0.0
26/01:00am 4.1 2.3 3.7 97 0.2 SSW 2 4 1 2 - - 0.0
26/12:30am 3.4 0.5 2.8 96 0.2 SSW 7 9 4 5 - - 0.0
26/12:00am 4.1 2.7 3.5 96 0.2 CALM 0 0 0 0 - - 0.0
 
Date/Time
EST
Temp
°C
App
Temp
°C
Dew
Point
°C
Rel
Hum
%
Delta-T
°C
Wind Press
QNH
hPa
Press
MSL
hPa
Rain since
9am
mm
Dir  Spd
km/h
Gust
km/h
Spd
kts
Gust
kts
25/11:30pm 3.1 1.1 2.1 93 0.4 SSW 2 4 1 2 - - 0.0
25/11:00pm 4.7 2.2 4.0 95 0.3 S 6 9 3 5 - - 0.0
25/10:30pm 4.2 1.4 3.0 92 0.5 S 7 7 4 4 - - 0.0
25/10:00pm 5.3 2.4 4.6 95 0.3 S 9 11 5 6 - - 0.0
25/09:30pm 4.3 2.1 3.1 92 0.5 SSW 4 6 2 3 - - 0.0
25/09:00pm 5.0 3.7 4.1 94 0.4 CALM 0 2 0 1 - - 0.0
25/08:30pm 5.7 3.2 4.5 92 0.5 SE 7 9 4 5 - - 0.0
25/08:00pm 7.4 4.2 5.0 85 1.1 SSE 11 13 6 7 - - 0.0
25/07:30pm 6.1 3.8 4.7 91 0.6 SSW 6 7 3 4 - - 0.0
25/07:00pm 7.5 4.7 5.1 85 1.1 S 9 9 5 5 - - 0.0
25/06:30pm 7.8 5.3 4.9 82 1.3 SSE 7 9 4 5 - - 0.0
25/06:00pm 8.4 6.2 5.5 82 1.3 SSE 6 7 3 4 - - 0.0
25/05:30pm 8.6 6.4 5.4 80 1.5 S 6 6 3 3 - - 0.0
25/05:00pm 11.5 9.8 6.0 69 2.6 SSW 4 4 2 2 - - 0.0
25/04:30pm 15.1 13.0 5.9 54 4.5 S 6 7 3 4 - - 0.0
25/04:00pm 16.0 12.8 5.3 49 5.1 S 11 17 6 9 - - 0.0
25/03:30pm 16.4 13.2 5.1 47 5.4 SSE 11 17 6 9 - - 0.0
25/03:00pm 16.6 13.1 5.6 48 5.3 SSE 13 15 7 8 - - 0.0
25/02:30pm 16.8 13.5 6.3 50 5.2 SSE 13 20 7 11 - - 0.0
25/02:00pm 16.6 13.8 5.3 47 5.5 SSE 9 17 5 9 - - 0.0
25/01:30pm 16.4 12.8 5.1 47 5.4 S 13 20 7 11 - - 0.0
25/01:00pm 16.3 13.0 6.4 52 4.9 S 13 17 7 9 - - 0.0
25/12:30pm 15.9 12.2 6.3 53 4.7 S 15 24 8 13 - - 0.0
25/12:00pm 15.4 12.5 6.7 56 4.3 S 11 15 6 8 - - 0.0
25/11:30am 14.7 12.0 7.3 61 3.7 SSW 11 17 6 9 - - 0.0
25/11:00am 13.9 11.0 6.7 62 3.5 S 11 15 6 8 - - 0.0
25/10:30am 12.9 9.6 6.5 65 3.1 S 13 17 7 9 - - 0.0
25/10:00am 11.3 8.1 7.0 75 2.1 S 13 15 7 8 - - 0.0
25/09:30am 9.6 6.6 6.0 78 1.7 S 11 13 6 7 - - 0.0
25/09:00am 8.2 5.9 5.5 83 1.2 S 7 9 4 5 - - 0.2
25/08:30am 6.7 4.2 4.9 88 0.8 S 7 9 4 5 - - 0.2
25/08:00am 4.6 1.1 3.7 94 0.4 S 11 11 6 6 - - 0.2
25/07:30am 2.4 -1.5 1.4 93 0.4 S 11 13 6 7 - - 0.2
25/07:00am 3.9 0.0 3.2 95 0.3 S 13 15 7 8 - - 0.2
25/06:30am 2.8 -0.9 2.1 95 0.3 S 11 13 6 7 - - 0.2
25/06:00am 3.0 -1.1 2.3 95 0.3 S 13 13 7 7 - - 0.2
25/05:30am 2.9 -0.8 2.3 96 0.2 S 11 13 6 7 - - 0.2
25/05:00am 2.4 -0.6 1.7 95 0.3 SSW 7 9 4 5 - - 0.0
25/04:30am 2.6 -0.8 1.9 95 0.3 SSW 9 11 5 6 - - 0.0
25/04:00am 2.7 -1.5 1.8 94 0.4 SSW 13 15 7 8 - - 0.0
25/03:30am 3.0 -0.8 2.0 93 0.4 SSW 11 13 6 7 - - 0.0
25/03:00am 3.0 -0.7 2.1 94 0.4 SSW 11 11 6 6 - - 0.0
25/02:30am 2.6 -0.8 1.6 93 0.4 SSW 9 11 5 6 - - 0.0
25/02:00am 2.6 -0.9 1.4 92 0.5 SSW 9 11 5 6 - - 0.0
25/01:30am 3.0 -0.8 1.8 92 0.5 S 11 13 6 7 - - 0.0
25/01:00am 3.0 -0.4 1.7 91 0.5 S 9 11 5 6 - - 0.0
25/12:30am 2.6 -0.8 1.9 95 0.3 S 9 11 5 6 - - 0.0
25/12:00am 1.8 0.0 1.1 95 0.3 CALM 0 0 0 0 - - 0.0
 
Date/Time
EST
Temp
°C
App
Temp
°C
Dew
Point
°C
Rel
Hum
%
Delta-T
°C
Wind Press
QNH
hPa
Press
MSL
hPa
Rain since
9am
mm
Dir  Spd
km/h
Gust
km/h
Spd
kts
Gust
kts
24/11:30pm 1.9 -0.7 0.9 93 0.4 SSW 4 4 2 2 - - 0.0
24/11:00pm 2.3 0.5 1.1 92 0.5 CALM 0 4 0 2 - - 0.0
24/10:30pm 3.0 0.8 1.1 87 0.7 S 2 2 1 1 - - 0.0
24/10:00pm 4.0 0.6 2.0 87 0.8 S 9 9 5 5 - - 0.0
24/09:30pm 3.9 1.8 1.8 86 0.8 SSE 2 6 1 3 - - 0.0
24/09:00pm 4.3 1.8 1.8 84 1.0 SSE 4 6 2 3 - - 0.0
24/08:30pm 5.2 2.3 2.4 82 1.1 S 7 9 4 5 - - 0.0
24/08:00pm 5.3 2.1 2.8 84 1.0 S 9 9 5 5 - - 0.0
24/07:30pm 6.6 3.9 3.6 81 1.3 S 7 9 4 5 - - 0.0
24/07:00pm 6.8 3.7 3.8 81 1.3 S 9 11 5 6 - - 0.0
24/06:30pm 7.2 4.5 3.8 79 1.5 S 7 9 4 5 - - 0.0
24/06:00pm 8.3 5.3 4.1 75 1.8 S 9 11 5 6 - - 0.0
24/05:30pm 8.4 6.3 3.8 73 2.0 S 4 4 2 2 - - 0.0
24/05:00pm 12.9 9.6 4.6 57 3.8 SSW 11 15 6 8 - - 0.0
24/04:30pm 14.2 11.0 5.3 55 4.2 SSW 11 17 6 9 - - 0.0
24/04:00pm 15.3 12.1 5.0 50 4.9 SSW 11 17 6 9 - - 0.0
24/03:30pm 15.6 11.4 5.5 51 4.9 S 17 22 9 12 - - 0.0
24/03:00pm 15.9 12.2 6.1 52 4.8 S 15 22 8 12 - - 0.0
24/02:30pm 16.4 14.0 7.1 54 4.7 S 9 15 5 8 - - 0.0
24/02:00pm 16.0 12.7 6.4 53 4.7 S 13 20 7 11 - - 0.0
24/01:30pm 15.5 11.8 6.5 55 4.4 S 15 22 8 12 - - 0.0
24/01:00pm 15.2 11.2 6.5 56 4.3 S 17 24 9 13 - - 0.0
24/12:30pm 15.1 10.6 6.1 55 4.4 S 19 26 10 14 - - 0.0
24/12:00pm 14.9 10.5 6.7 58 4.0 SSW 19 24 10 13 - - 0.0
24/11:30am 14.4 10.8 6.7 60 3.8 SSW 15 20 8 11 - - 0.0
24/11:00am 13.9 10.3 6.7 62 3.5 SSW 15 22 8 12 - - 0.0
24/10:30am 13.2 9.5 6.3 63 3.3 S 15 20 8 11 - - 0.0
24/10:00am 12.0 8.7 6.5 69 2.6 S 13 17 7 9 - - 0.0
24/09:30am 10.3 6.9 6.1 75 2.0 S 13 17 7 9 - - 0.0
24/09:00am 8.6 5.3 6.2 85 1.1 S 13 15 7 8 - - 0.2
24/08:30am 6.5 2.9 4.8 89 0.7 S 13 15 7 8 - - 0.2
24/08:00am 4.3 0.8 3.4 94 0.4 SSW 11 15 6 8 - - 0.2
24/07:30am 3.4 -0.2 2.7 95 0.3 SSW 11 13 6 7 - - 0.2
24/07:00am 2.6 -1.6 1.9 95 0.3 SSW 13 15 7 8 - - 0.2
24/06:30am 2.0 -1.9 1.3 95 0.3 S 11 13 6 7 - - 0.2
24/06:00am 2.3 -1.9 1.7 96 0.2 S 13 13 7 7 - - 0.2
24/05:30am 2.1 -2.1 1.7 97 0.2 S 13 15 7 8 - - 0.2
24/05:00am 1.5 -2.4 1.2 98 0.1 S 11 13 6 7 - - 0.2
24/04:30am 1.7 -2.2 1.4 98 0.1 S 11 13 6 7 - - 0.2
24/04:00am 1.6 -2.3 1.3 98 0.1 SSW 11 13 6 7 - - 0.2
24/03:30am 2.0 -1.4 1.7 98 0.1 S 9 11 5 6 - - 0.2
24/03:00am 1.3 -1.9 1.0 98 0.1 S 7 9 4 5 - - 0.2
24/02:30am 1.2 -0.7 0.8 97 0.2 CALM 0 0 0 0 - - 0.2
24/02:00am 2.2 -0.8 1.8 97 0.2 S 7 7 4 4 - - 0.2
24/01:30am 2.6 -0.2 2.2 97 0.2 S 6 7 3 4 - - 0.2
24/01:00am 2.3 -0.2 1.7 96 0.2 SSW 4 6 2 3 - - 0.2
24/12:30am 3.5 2.0 3.2 98 0.1 CALM 0 4 0 2 - - 0.0
24/12:00am 3.2 1.7 2.8 97 0.2 CALM 0 2 0 1 - - 0.0
 
Date/Time
EST
Temp
°C
App
Temp
°C
Dew
Point
°C
Rel
Hum
%
Delta-T
°C
Wind Press
QNH
hPa
Press
MSL
hPa
Rain since
9am
mm
Dir  Spd
km/h
Gust
km/h
Spd
kts
Gust
kts
23/11:30pm 3.6 1.0 3.0 96 0.2 SSE 6 7 3 4 - - 0.0
23/11:00pm 4.2 1.7 3.8 97 0.2 SSE 6 7 3 4 - - 0.0
23/10:30pm 4.1 2.7 3.5 96 0.2 CALM 0 0 0 0 - - 0.0
23/10:00pm 4.9 2.9 4.5 97 0.2 NNE 4 4 2 2 - - 0.0
23/09:30pm 4.5 2.3 3.6 94 0.4 SSW 4 4 2 2 - - 0.0
23/09:00pm 5.4 2.9 4.8 96 0.3 SSW 7 9 4 5 - - 0.0
23/08:30pm 5.2 2.8 4.3 94 0.4 SSW 6 9 3 5 - - 0.0
23/08:00pm 5.3 3.2 4.0 91 0.6 SSW 4 9 2 5 - - 0.0
23/07:30pm 6.1 4.9 4.4 89 0.7 CALM 0 0 0 0 - - 0.0
23/07:00pm 6.8 5.8 5.6 92 0.5 CALM 0 0 0 0 - - 0.0
23/06:30pm 7.0 5.9 5.0 87 0.9 CALM 0 6 0 3 - - 0.0
23/06:00pm 9.3 7.6 5.9 79 1.6 SW 4 7 2 4 - - 0.0
23/05:30pm 9.6 7.9 5.8 77 1.8 SW 4 9 2 5 - - 0.0
23/05:00pm 10.1 8.8 5.9 75 2.0 SW 2 6 1 3 - - 0.0
23/04:30pm 11.2 9.9 6.1 71 2.4 SW 2 9 1 5 - - 0.0
23/04:00pm 11.8 9.8 7.1 73 2.3 SW 7 13 4 7 - - 0.0
23/03:30pm 12.0 10.1 6.7 70 2.5 WSW 6 11 3 6 - - 0.0
23/03:00pm 12.0 9.5 6.5 69 2.6 WSW 9 13 5 7 - - 0.0
23/02:30pm 11.9 9.5 6.8 71 2.5 WSW 9 17 5 9 - - 0.0
23/02:00pm 12.4 9.7 7.3 71 2.5 WSW 11 20 6 11 - - 0.0
23/01:30pm 12.5 9.3 7.0 69 2.7 WSW 13 19 7 10 - - 0.0
23/01:00pm 13.5 11.2 7.3 66 3.1 WSW 9 19 5 10 - - 0.0
23/12:30pm 14.1 10.9 6.7 61 3.6 SW 13 19 7 10 - - 0.0
23/12:00pm 13.7 10.5 7.0 64 3.3 SW 13 20 7 11 - - 0.0
23/11:30am 13.3 10.0 6.6 64 3.2 SSW 13 19 7 10 - - 0.0
23/11:00am 12.5 11.3 8.0 74 2.2 WSW 4 9 2 5 - - 0.0
23/10:30am 10.5 8.3 6.3 75 2.0 SW 7 11 4 6 - - 0.0

Other formats

Comma delimited format used in spreadsheet applications
http://www.bom.gov.au/fwo/IDN60801/IDN60801.94944.axf

JavaScript Object Notation format (JSON) in row-major order
http://www.bom.gov.au/fwo/IDN60801/IDN60801.94944.json

Data quality

Most of these data are generated automatically and are frequently updated. Quality checks on data are not normally performed. It is possible for incorrect values to appear. Refer to information at About Latest Weather Observations and please check the disclaimer before using these data.